createdAt,value
2023-04-25T00:00:22.151Z,99350.22
2023-04-25T00:02:50.003Z,99344.09
2023-04-25T00:05:20.563Z,99348.28
2023-04-25T00:07:48.189Z,99348.19
2023-04-25T00:10:15.860Z,99354.03
2023-04-25T00:12:43.695Z,99350.63
2023-04-25T00:15:12.219Z,99360.91
2023-04-25T00:17:40.272Z,99360.00
2023-04-25T00:20:10.221Z,99366.00
2023-04-25T00:22:39.457Z,99359.09
2023-04-25T00:25:08.285Z,99365.16
2023-04-25T00:27:35.885Z,99358.34
2023-04-25T00:30:03.561Z,99365.16
2023-04-25T00:32:31.209Z,99360.97
2023-04-25T00:34:59.479Z,99362.63
2023-04-25T00:37:27.103Z,99357.50
2023-04-25T00:39:56.899Z,99360.13
2023-04-25T00:42:24.497Z,99354.16
2023-04-25T00:44:53.471Z,99343.91
2023-04-25T00:47:21.353Z,99344.72
2023-04-25T00:49:49.082Z,99334.50
2023-04-25T00:52:16.644Z,99340.50
2023-04-25T00:54:44.708Z,99328.59
2023-04-25T00:57:13.912Z,99331.06
2023-04-25T00:59:46.134Z,99332.91
2023-04-25T01:02:14.303Z,99338.97
2023-04-25T01:04:42.166Z,99332.97
2023-04-25T01:07:10.134Z,99325.31
2023-04-25T01:09:37.708Z,99327.88
2023-04-25T01:12:05.853Z,99329.59
2023-04-25T01:14:34.972Z,99334.72
2023-04-25T01:17:03.455Z,99327.03
2023-04-25T01:19:31.804Z,99341.56
2023-04-25T01:22:00.787Z,99327.00
2023-04-25T01:24:28.819Z,99325.38
2023-04-25T01:26:57.929Z,99328.03
2023-04-25T01:29:27.423Z,99321.16
2023-04-25T01:31:55.486Z,99325.50
2023-04-25T01:34:23.377Z,99317.94
2023-04-25T01:36:52.300Z,99316.22
2023-04-25T01:39:21.872Z,99318.84
2023-04-25T01:41:49.831Z,99319.75
2023-04-25T01:48:29.594Z,99318.00
2023-04-25T01:50:57.483Z,99316.31
2023-04-25T01:53:25.958Z,99318.94
2023-04-25T01:55:55.886Z,99317.25
2023-04-25T01:58:26.434Z,99317.34
2023-04-25T02:01:05.184Z,99319.06
2023-04-25T02:03:41.203Z,99320.88
2023-04-25T02:06:14.559Z,99314.13
2023-04-25T02:08:45.369Z,99313.28
2023-04-25T02:11:16.074Z,99315.88
2023-04-25T02:13:49.984Z,99321.16
2023-04-25T02:16:26.328Z,99317.75
2023-04-25T02:18:54.917Z,99322.69
2023-04-25T02:21:22.453Z,99319.09
2023-04-25T02:23:53.187Z,99313.19
2023-04-25T02:26:24.576Z,99314.03
2023-04-25T02:28:52.875Z,99314.16
2023-04-25T02:31:21.217Z,99313.19
2023-04-25T02:33:49.680Z,99313.97
2023-04-25T02:36:17.398Z,99313.94
2023-04-25T02:38:44.936Z,99324.25
2023-04-25T02:41:12.565Z,99308.78
2023-04-25T02:43:41.480Z,99308.78
2023-04-25T02:46:09.282Z,99300.31
2023-04-25T02:48:36.813Z,99294.34
2023-04-25T02:51:04.718Z,99298.53
2023-04-25T02:53:32.487Z,99307.00
2023-04-25T02:56:00.201Z,99299.00
2023-04-25T02:58:27.737Z,99294.81
2023-04-25T03:00:56.924Z,99297.34
2023-04-25T03:03:24.785Z,99291.41
2023-04-25T03:05:53.735Z,99287.19
2023-04-25T03:08:27.799Z,99288.69
2023-04-25T03:10:56.522Z,99289.56
2023-04-25T03:13:24.494Z,99293.00
2023-04-25T03:15:52.089Z,99289.63
2023-04-25T03:18:21.694Z,99289.56
2023-04-25T03:20:49.291Z,99281.75
2023-04-25T03:23:16.835Z,99291.25
2023-04-25T03:25:44.608Z,99279.22
2023-04-25T03:28:12.235Z,99278.31
2023-04-25T03:30:39.850Z,99275.66
2023-04-25T03:33:07.931Z,99284.19
2023-04-25T03:35:37.035Z,99284.22
2023-04-25T03:38:04.873Z,99285.09
2023-04-25T03:40:37.291Z,99279.91
2023-04-25T03:43:19.424Z,99275.66
2023-04-25T03:45:54.120Z,99273.88
2023-04-25T03:48:25.530Z,99278.97
2023-04-25T03:50:55.097Z,99272.00
2023-04-25T03:53:22.710Z,99278.78
2023-04-25T03:56:08.959Z,99275.34
2023-04-25T03:58:38.553Z,99283.88
2023-04-25T04:01:08.657Z,99282.94
2023-04-25T04:03:40.409Z,99288.16
2023-04-25T04:06:10.225Z,99285.53
2023-04-25T04:08:40.936Z,99288.13
2023-04-25T04:11:09.787Z,99291.66
2023-04-25T04:13:38.199Z,99295.97
2023-04-25T04:16:07.353Z,99299.44
2023-04-25T04:18:35.451Z,99297.72
2023-04-25T04:21:03.151Z,99292.63
2023-04-25T04:23:36.178Z,99293.63
2023-04-25T04:26:05.993Z,99294.50
2023-04-25T04:29:00.238Z,99286.78
2023-04-25T04:31:39.126Z,99292.78
2023-04-25T04:34:07.238Z,99294.50
2023-04-25T04:36:36.308Z,99294.50
2023-04-25T04:39:07.640Z,99293.53
2023-04-25T04:41:44.767Z,99290.97
2023-04-25T04:44:16.696Z,99294.47
2023-04-25T04:46:51.417Z,99290.13
2023-04-25T04:49:27.995Z,99294.50
2023-04-25T04:52:19.395Z,99297.09
2023-04-25T04:54:54.316Z,99306.50
2023-04-25T04:57:36.759Z,99302.28
2023-04-25T05:00:29.767Z,99308.47
2023-04-25T05:03:33.144Z,99313.75
2023-04-25T05:06:03.501Z,99309.56
2023-04-25T05:08:44.752Z,99306.19
2023-04-25T05:11:33.931Z,99308.84
2023-04-25T05:14:19.559Z,99309.75
2023-04-25T05:16:47.209Z,99304.75
2023-04-25T05:19:22.785Z,99302.44
2023-04-25T05:22:10.623Z,99309.41
2023-04-25T05:24:56.767Z,99314.81
2023-04-25T05:27:48.672Z,99319.97
2023-04-25T05:30:40.149Z,99318.31
2023-04-25T05:33:12.266Z,99318.34
2023-04-25T05:35:40.437Z,99319.16
2023-04-25T05:38:08.008Z,99316.53
2023-04-25T05:40:55.738Z,99323.50
2023-04-25T05:43:46.107Z,99317.66
2023-04-25T05:46:34.402Z,99322.97
2023-04-25T05:49:17.551Z,99317.91
2023-04-25T05:52:20.227Z,99326.75
2023-04-25T05:55:01.998Z,99331.22
2023-04-25T05:57:32.117Z,99327.94
2023-04-25T06:00:01.485Z,99331.44
2023-04-25T06:02:41.177Z,99331.13
2023-04-25T06:05:10.862Z,99336.34
2023-04-25T06:07:38.829Z,99338.88
2023-04-25T06:10:08.149Z,99342.88
2023-04-25T06:12:35.749Z,99342.84
2023-04-25T06:15:20.163Z,99339.44
2023-04-25T06:17:54.590Z,99342.06
2023-04-25T06:20:24.860Z,99334.38
2023-04-25T06:22:53.872Z,99334.56
2023-04-25T06:25:26.737Z,99341.53
2023-04-25T06:27:55.294Z,99346.69
2023-04-25T06:30:26.615Z,99344.28
2023-04-25T06:32:58.542Z,99336.81
2023-04-25T06:35:26.403Z,99347.13
2023-04-25T06:37:54.453Z,99344.50
2023-04-25T06:40:24.539Z,99357.34
2023-04-25T06:42:52.561Z,99347.13
2023-04-25T06:45:41.934Z,99355.34
2023-04-25T06:48:10.292Z,99354.84
2023-04-25T06:50:38.749Z,99357.94
2023-04-25T06:53:06.690Z,99354.41
2023-04-25T06:55:35.758Z,99350.81
2023-04-25T06:58:19.713Z,99357.53
2023-04-25T07:01:05.888Z,99356.47
2023-04-25T07:03:34.562Z,99359.06
2023-04-25T07:06:08.563Z,99363.34
2023-04-25T07:08:36.319Z,99366.00
2023-04-25T07:11:03.935Z,99364.44
2023-04-25T07:13:31.529Z,99362.69
2023-04-25T07:15:59.755Z,99362.88
2023-04-25T07:18:30.755Z,99371.25
2023-04-25T07:20:58.625Z,99365.44
2023-04-25T07:23:28.314Z,99362.94
2023-04-25T07:25:56.854Z,99366.75
2023-04-25T07:28:26.785Z,99370.31
2023-04-25T07:30:54.686Z,99378.38
2023-04-25T07:33:22.330Z,99376.63
2023-04-25T07:35:51.396Z,99382.31
2023-04-25T07:38:19.399Z,99378.09
2023-04-25T07:40:49.367Z,99381.59
2023-04-25T07:43:18.395Z,99383.44
2023-04-25T07:46:00.402Z,99390.28
2023-04-25T07:48:31.472Z,99398.38
2023-04-25T07:51:00.632Z,99396.41
2023-04-25T07:53:28.528Z,99399.75
2023-04-25T07:56:01.321Z,99403.22
2023-04-25T07:58:32.248Z,99406.56
2023-04-25T08:01:02.605Z,99404.22
2023-04-25T08:03:36.351Z,99423.16
2023-04-25T08:06:09.428Z,99420.44
2023-04-25T08:08:46.142Z,99425.56
2023-04-25T08:11:18.033Z,99425.53
2023-04-25T08:13:45.733Z,99433.91
2023-04-25T08:16:13.955Z,99430.69
2023-04-25T08:18:42.168Z,99438.75
2023-04-25T08:21:13.291Z,99442.75
2023-04-25T08:23:42.364Z,99442.16
2023-04-25T08:26:46.779Z,99440.25
2023-04-25T08:29:17.720Z,99446.44
2023-04-25T08:31:46.392Z,99452.63
2023-04-25T08:34:16.099Z,99460.03
2023-04-25T08:36:47.705Z,99463.53
2023-04-25T08:39:34.118Z,99463.78
2023-04-25T08:42:21.325Z,99472.25
2023-04-25T08:44:50.420Z,99472.25
2023-04-25T08:47:23.666Z,99476.56
2023-04-25T08:49:56.985Z,99477.34
2023-04-25T08:52:29.251Z,99479.78
2023-04-25T08:54:58.978Z,99478.75
2023-04-25T08:57:29.559Z,99484.97
2023-04-25T08:59:59.312Z,99491.28
2023-04-25T09:02:27.279Z,99499.84
2023-04-25T09:04:56.294Z,99496.41
2023-04-25T09:07:26.632Z,99506.91
2023-04-25T09:09:55.625Z,99499.34
2023-04-25T09:12:24.591Z,99508.94
2023-04-25T09:15:07.339Z,99514.78
2023-04-25T09:18:07.931Z,99521.63
2023-04-25T09:23:16.888Z,99521.94
2023-04-25T09:25:44.739Z,99524.03
2023-04-25T09:28:13.148Z,99533.50
2023-04-25T09:30:41.106Z,99544.59
2023-04-25T09:33:16.296Z,99553.94
2023-04-25T09:35:55.088Z,99573.53
2023-04-25T09:38:44.772Z,99575.03
2023-04-25T09:41:35.703Z,99586.75
2023-04-25T09:44:04.388Z,99578.06
2023-04-25T09:46:37.510Z,99590.13
2023-04-25T09:49:08.959Z,99590.19
2023-04-25T09:51:56.082Z,99592.94
2023-04-25T09:54:26.298Z,99598.00
2023-04-25T09:57:13.112Z,99601.38
2023-04-25T09:59:45.049Z,99604.72
2023-04-25T10:02:13.713Z,99614.03
2023-04-25T10:04:43.331Z,99612.97
2023-04-25T10:07:21.881Z,99618.22
2023-04-25T10:09:51.758Z,99622.53
2023-04-25T10:12:19.875Z,99627.38
2023-04-25T10:14:48.554Z,99639.69
2023-04-25T10:17:16.488Z,99641.97
2023-04-25T10:19:44.301Z,99645.34
2023-04-25T10:22:16.784Z,99636.59
2023-04-25T10:24:47.181Z,99643.19
2023-04-25T10:27:16.505Z,99633.03
2023-04-25T10:29:45.291Z,99635.06
2023-04-25T10:32:14.788Z,99637.84
2023-04-25T10:34:44.538Z,99645.44
2023-04-25T10:37:15.284Z,99641.19
2023-04-25T10:39:44.710Z,99639.00
2023-04-25T10:42:13.391Z,99644.53
2023-04-25T10:44:42.315Z,99647.69
2023-04-25T10:47:13.098Z,99645.81
2023-04-25T10:49:44.477Z,99650.22
2023-04-25T10:52:20.401Z,99647.25
2023-04-25T10:54:54.135Z,99654.28
2023-04-25T10:57:32.372Z,99655.66
2023-04-25T11:00:12.798Z,99657.16
2023-04-25T11:02:44.076Z,99658.81
2023-04-25T11:05:12.066Z,99661.75
2023-04-25T11:07:52.917Z,99657.22
2023-04-25T11:10:28.227Z,99663.09
2023-04-25T11:12:56.005Z,99658.25
2023-04-25T11:15:25.364Z,99653.00
2023-04-25T11:17:53.416Z,99663.41
2023-04-25T11:20:21.418Z,99664.69
2023-04-25T11:22:51.011Z,99668.09
2023-04-25T11:25:21.000Z,99665.81
2023-04-25T11:27:52.960Z,99663.63
2023-04-25T11:30:22.090Z,99662.41
2023-04-25T11:32:52.889Z,99663.13
2023-04-25T11:35:21.093Z,99664.47
2023-04-25T11:37:48.886Z,99670.41
2023-04-25T11:40:16.784Z,99669.84
2023-04-25T11:42:46.778Z,99671.47
2023-04-25T11:45:15.731Z,99668.78
2023-04-25T11:47:44.286Z,99671.81
2023-04-25T11:50:15.095Z,99678.97
2023-04-25T11:52:44.659Z,99678.31
2023-04-25T11:55:15.565Z,99684.00
2023-04-25T11:57:44.080Z,99684.03
2023-04-25T12:00:17.579Z,99685.97
2023-04-25T12:02:48.457Z,99689.19
2023-04-25T12:07:48.833Z,99689.78
2023-04-25T12:10:18.315Z,99702.66
2023-04-25T12:12:47.845Z,99710.88
2023-04-25T12:15:18.345Z,99708.41
2023-04-25T12:17:47.278Z,99711.13
2023-04-25T12:20:16.785Z,99707.06
2023-04-25T12:22:47.571Z,99697.38
2023-04-25T12:25:35.395Z,99693.34
2023-04-25T12:28:14.103Z,99695.03
2023-04-25T12:30:59.371Z,99696.00
2023-04-25T12:33:28.319Z,99701.47
2023-04-25T12:35:55.899Z,99701.44
2023-04-25T12:38:30.309Z,99693.94
2023-04-25T12:40:58.542Z,99698.75
2023-04-25T12:43:26.300Z,99694.72
2023-04-25T12:45:55.937Z,99702.97
2023-04-25T12:48:24.670Z,99704.78
2023-04-25T12:50:53.107Z,99712.03
2023-04-25T12:53:21.949Z,99707.22
2023-04-25T12:55:51.624Z,99706.53
2023-04-25T12:58:20.989Z,99709.88
2023-04-25T13:00:48.800Z,99712.94
2023-04-25T13:03:16.512Z,99721.72
2023-04-25T13:05:44.444Z,99712.50
2023-04-25T13:08:12.335Z,99713.06
2023-04-25T13:10:40.377Z,99715.84
2023-04-25T13:13:09.495Z,99722.41
2023-04-25T13:15:37.469Z,99719.78
2023-04-25T13:18:06.429Z,99719.97
2023-04-25T13:20:34.298Z,99716.88
2023-04-25T13:23:02.880Z,99711.56
2023-04-25T13:25:30.628Z,99713.66
2023-04-25T13:27:58.280Z,99713.22
2023-04-25T13:30:27.156Z,99711.63
2023-04-25T13:32:57.228Z,99717.97
2023-04-25T13:35:25.112Z,99715.50
2023-04-25T13:37:52.671Z,99711.63
2023-04-25T13:40:20.316Z,99717.94
2023-04-25T13:42:47.891Z,99716.13
2023-04-25T13:45:15.807Z,99717.44
2023-04-25T13:47:44.896Z,99718.50
2023-04-25T13:50:12.742Z,99722.50
2023-04-25T13:52:40.396Z,99728.81
2023-04-25T13:55:09.512Z,99722.88
2023-04-25T13:57:39.365Z,99733.03
2023-04-25T14:00:10.940Z,99723.94
2023-04-25T14:02:38.652Z,99725.69
2023-04-25T14:05:08.961Z,99725.88
2023-04-25T14:07:36.777Z,99719.28
2023-04-25T14:10:05.123Z,99722.00
2023-04-25T14:12:33.087Z,99721.41
2023-04-25T14:15:00.981Z,99714.06
2023-04-25T14:17:28.763Z,99717.03
2023-04-25T14:19:56.387Z,99715.84
2023-04-25T14:22:26.566Z,99721.38
2023-04-25T14:24:54.250Z,99707.63
2023-04-25T14:27:21.925Z,99715.03
2023-04-25T14:29:49.697Z,99713.09
2023-04-25T14:32:17.316Z,99718.50
2023-04-25T14:34:44.862Z,99722.41
2023-04-25T14:37:12.474Z,99718.09
2023-04-25T14:39:41.373Z,99727.03
2023-04-25T14:42:09.733Z,99715.03
2023-04-25T14:44:37.677Z,99711.22
2023-04-25T14:47:11.242Z,99706.66
2023-04-25T14:49:38.870Z,99703.44
2023-04-25T14:52:06.418Z,99707.72
2023-04-25T14:54:33.995Z,99710.06
2023-04-25T14:57:05.151Z,99709.66
2023-04-25T14:59:32.850Z,99709.19
2023-04-25T15:02:00.440Z,99712.75
2023-04-25T15:04:28.556Z,99714.50
2023-04-25T15:06:56.937Z,99709.28
2023-04-25T15:09:26.021Z,99714.44
2023-04-25T15:11:53.591Z,99717.94
2023-04-25T15:14:22.558Z,99714.50
2023-04-25T15:16:50.114Z,99713.63
2023-04-25T15:19:22.248Z,99715.34
2023-04-25T15:21:49.951Z,99709.28
2023-04-25T15:24:18.925Z,99716.16
2023-04-25T15:26:47.236Z,99720.47
2023-04-25T15:29:14.737Z,99730.03
2023-04-25T15:31:43.797Z,99733.53
2023-04-25T15:34:14.547Z,99733.53
2023-04-25T15:36:44.430Z,99727.28
2023-04-25T15:39:12.029Z,99741.63
2023-04-25T15:41:39.956Z,99738.09
2023-04-25T15:44:08.627Z,99737.44
2023-04-25T15:46:36.322Z,99739.97
2023-04-25T15:49:05.550Z,99740.75
2023-04-25T15:51:34.054Z,99749.00
2023-04-25T15:54:02.655Z,99746.25
2023-04-25T15:56:30.612Z,99755.13
2023-04-25T15:58:58.134Z,99753.13
2023-04-25T16:01:28.860Z,99750.41
2023-04-25T16:03:58.218Z,99755.44
2023-04-25T16:06:28.344Z,99752.81
2023-04-25T16:08:56.223Z,99769.88
2023-04-25T16:11:23.998Z,99774.16
2023-04-25T16:13:51.884Z,99785.09
2023-04-25T16:16:19.769Z,99792.53
2023-04-25T16:18:47.682Z,99799.97
2023-04-25T16:21:17.027Z,99811.50
2023-04-25T16:23:46.390Z,99813.25
2023-04-25T16:26:16.695Z,99823.19
2023-04-25T16:28:44.354Z,99836.47
2023-04-25T16:31:12.376Z,99836.41
2023-04-25T16:33:39.998Z,99836.25
2023-04-25T16:36:09.251Z,99833.59
2023-04-25T16:38:39.683Z,99835.84
2023-04-25T16:41:08.860Z,99835.91
2023-04-25T16:43:36.431Z,99834.44
2023-04-25T16:46:04.056Z,99838.00
2023-04-25T16:48:31.677Z,99833.03
2023-04-25T16:50:59.466Z,99826.34
2023-04-25T16:53:27.120Z,99836.59
2023-04-25T16:55:54.810Z,99823.78
2023-04-25T16:58:23.991Z,99828.16
2023-04-25T17:00:51.648Z,99826.50
2023-04-25T17:03:19.283Z,99819.78
2023-04-25T17:05:48.046Z,99819.78
2023-04-25T17:08:15.720Z,99816.56
2023-04-25T17:10:45.782Z,99811.63
2023-04-25T17:13:13.331Z,99805.69
2023-04-25T17:15:42.419Z,99816.13
2023-04-25T17:18:10.809Z,99808.38
2023-04-25T17:20:38.491Z,99817.75
2023-04-25T17:23:06.220Z,99821.69
2023-04-25T17:25:33.954Z,99830.47
2023-04-25T17:28:01.568Z,99834.44
2023-04-25T17:30:29.186Z,99830.22
2023-04-25T17:32:58.089Z,99838.59
2023-04-25T17:35:26.090Z,99837.59
2023-04-25T17:37:53.678Z,99838.38
2023-04-25T17:40:21.764Z,99831.69
2023-04-25T17:42:49.518Z,99834.03
2023-04-25T17:45:17.440Z,99832.28
2023-04-25T17:47:45.352Z,99832.56
2023-04-25T17:50:16.613Z,99839.50
2023-04-25T17:52:44.972Z,99833.59
2023-04-25T17:55:12.611Z,99828.72
2023-04-25T17:57:40.180Z,99830.44
2023-04-25T18:00:11.286Z,99836.34
2023-04-25T18:02:45.165Z,99839.69
2023-04-25T18:05:15.490Z,99844.72
2023-04-25T18:07:43.376Z,99842.88
2023-04-25T18:10:11.810Z,99849.59
2023-04-25T18:12:39.478Z,99849.34
2023-04-25T18:15:08.152Z,99854.03
2023-04-25T18:17:39.958Z,99858.38
2023-04-25T18:20:12.054Z,99862.50
2023-04-25T18:22:41.037Z,99862.38
2023-04-25T18:25:10.051Z,99867.44
2023-04-25T18:27:38.126Z,99861.50
2023-04-25T18:30:06.789Z,99870.91
2023-04-25T18:32:34.663Z,99878.50
2023-04-25T18:35:02.456Z,99878.56
2023-04-25T18:37:30.059Z,99879.41
2023-04-25T18:39:59.205Z,99883.59
2023-04-25T18:42:26.775Z,99886.88
2023-04-25T18:44:54.342Z,99892.69
2023-04-25T18:47:21.869Z,99898.50
2023-04-25T18:49:50.747Z,99904.47
2023-04-25T18:52:19.016Z,99919.03
2023-04-25T18:54:47.071Z,99914.63
2023-04-25T18:57:17.654Z,99915.22
2023-04-25T18:59:46.208Z,99918.50
2023-04-25T19:02:16.013Z,99922.81
2023-04-25T19:04:44.035Z,99925.38
2023-04-25T19:07:11.676Z,99930.66
2023-04-25T19:09:39.187Z,99933.34
2023-04-25T19:12:07.189Z,99940.94
2023-04-25T19:14:36.159Z,99935.69
2023-04-25T19:17:04.459Z,99929.50
2023-04-25T19:19:32.390Z,99936.47
2023-04-25T19:21:59.932Z,99939.75
2023-04-25T19:24:27.576Z,99939.06
2023-04-25T19:26:55.178Z,99941.72
2023-04-25T19:29:22.997Z,99934.81
2023-04-25T19:31:51.998Z,99939.88
2023-04-25T19:34:19.581Z,99941.63
2023-04-25T19:36:47.095Z,99939.75
2023-04-25T19:39:14.724Z,99946.41
2023-04-25T19:41:42.365Z,99947.94
2023-04-25T19:44:10.384Z,99949.66
2023-04-25T19:46:38.131Z,99953.84
2023-04-25T19:49:07.898Z,99943.31
2023-04-25T19:51:36.600Z,99947.41
2023-04-25T19:54:04.227Z,99943.22
2023-04-25T19:56:32.503Z,99938.94
2023-04-25T19:59:00.561Z,99945.72
2023-04-25T20:01:28.354Z,99954.31
2023-04-25T20:03:56.521Z,99950.91
2023-04-25T20:06:27.009Z,99952.78
2023-04-25T20:08:54.717Z,99962.25
2023-04-25T20:11:22.539Z,99961.47
2023-04-25T20:13:50.461Z,99963.22
2023-04-25T20:16:20.243Z,99963.22
2023-04-25T20:18:48.335Z,99960.06
2023-04-25T20:21:18.402Z,99972.19
2023-04-25T20:23:47.407Z,99971.50
2023-04-25T20:26:15.210Z,99974.72
2023-04-25T20:28:42.856Z,99983.75
2023-04-25T20:31:11.577Z,99981.97
2023-04-25T20:33:39.286Z,99975.22
2023-04-25T20:36:07.597Z,99980.31
2023-04-25T20:38:35.214Z,99989.19
2023-04-25T20:41:04.556Z,99984.31
2023-04-25T20:43:32.358Z,99979.84
2023-04-25T20:46:00.438Z,99977.16
2023-04-25T20:48:28.195Z,99973.56
2023-04-25T20:50:56.207Z,99978.63
2023-04-25T20:53:23.857Z,99973.84
2023-04-25T20:55:51.538Z,99971.31
2023-04-25T20:58:21.495Z,99967.84
2023-04-25T21:00:50.419Z,99972.75
2023-04-25T21:03:18.160Z,99981.88
2023-04-25T21:05:46.492Z,99980.63
2023-04-25T21:08:14.149Z,99982.56
2023-04-25T21:10:42.093Z,99982.56
2023-04-25T21:13:09.644Z,99987.03
2023-04-25T21:15:38.818Z,99981.19
2023-04-25T21:18:07.029Z,99991.41
2023-04-25T21:20:34.833Z,99976.91
2023-04-25T21:23:02.862Z,99988.88
2023-04-25T21:25:31.749Z,99993.16
2023-04-25T21:28:00.369Z,99997.44
2023-04-25T21:30:28.059Z,99998.28
2023-04-25T21:32:57.362Z,99999.94
2023-04-25T21:35:25.542Z,100005.06
2023-04-25T21:37:53.581Z,99998.97
2023-04-25T21:40:21.891Z,99999.81
2023-04-25T21:42:51.852Z,99985.34
2023-04-25T21:45:20.403Z,99999.94
2023-04-25T21:47:48.322Z,99995.53
2023-04-25T21:50:18.020Z,100009.16
2023-04-25T21:52:45.630Z,99998.94
2023-04-25T21:55:13.337Z,100009.34
2023-04-25T21:57:41.159Z,100012.84
2023-04-25T22:00:21.830Z,100011.09
2023-04-25T22:02:49.699Z,100025.66
2023-04-25T22:05:20.389Z,100010.28
2023-04-25T22:07:48.275Z,100016.09
2023-04-25T22:10:16.243Z,100020.31
2023-04-25T22:12:44.584Z,100022.06
2023-04-25T22:15:13.574Z,100024.75
2023-04-25T22:17:41.213Z,100019.59
2023-04-25T22:20:14.198Z,100021.34
2023-04-25T22:22:44.057Z,100017.97
2023-04-25T22:25:12.827Z,100028.13
2023-04-25T22:27:42.859Z,100025.66
2023-04-25T22:30:13.020Z,100029.94
2023-04-25T22:32:41.418Z,100033.34
2023-04-25T22:35:10.286Z,100030.78
2023-04-25T22:37:38.112Z,100027.31
2023-04-25T22:40:08.962Z,100034.00
2023-04-25T22:42:40.601Z,100032.31
2023-04-25T22:45:09.350Z,100034.88
2023-04-25T22:47:37.230Z,100031.44
2023-04-25T22:50:07.406Z,100033.94
2023-04-25T22:52:35.031Z,100028.69
2023-04-25T22:55:04.286Z,100032.97
2023-04-25T22:57:33.187Z,100028.53
2023-04-25T23:00:01.573Z,100031.88
2023-04-25T23:02:29.316Z,100043.75
2023-04-25T23:04:56.933Z,100034.31
2023-04-25T23:07:25.074Z,100035.84
2023-04-25T23:09:52.599Z,100038.41
2023-04-25T23:12:20.153Z,100028.16
2023-04-25T23:14:51.847Z,100034.22
2023-04-25T23:17:20.369Z,100030.78
2023-04-25T23:19:48.250Z,100033.19
2023-04-25T23:22:15.857Z,100036.31
2023-04-25T23:24:43.623Z,100042.84
2023-04-25T23:27:11.209Z,100048.63
2023-04-25T23:29:40.448Z,100045.06
2023-04-25T23:32:10.215Z,100043.88
2023-04-25T23:34:37.831Z,100049.72
2023-04-25T23:37:05.393Z,100048.53
2023-04-25T23:39:33.077Z,100056.91
2023-04-25T23:42:00.691Z,100065.41
2023-04-25T23:44:28.216Z,100060.97
2023-04-25T23:46:55.728Z,100061.78
2023-04-25T23:49:24.602Z,100061.69
2023-04-25T23:51:52.134Z,100056.44
2023-04-25T23:54:19.704Z,100064.94
2023-04-25T23:56:47.264Z,100063.06
2023-04-25T23:59:14.809Z,100064.56
